Time;durP1;ratioP1;P1;durP2;ratioP2;P2;SDS_P1;SDS_P2;PMS_P1;PMS_P2;Temp;Humidity;BMP_temperature;BMP_pressure;BME280_temperature;BME280_humidity;BME280_pressure;Samples;Min_cycle;Max_cycle;Signal;HPM_P1;HPM_P2
2021/05/01 00:01:45;;;;;;;35.40;25.77;;;6.70;99.90;;;;;;4935982;28;20188;-83
2021/05/01 00:04:11;;;;;;;34.70;26.27;;;6.60;99.90;;;;;;4935695;28;20357;-83
2021/05/01 00:06:36;;;;;;;37.17;26.40;;;6.60;99.90;;;;;;4938301;28;20221;-83
2021/05/01 00:09:02;;;;;;;38.90;26.90;;;6.60;99.90;;;;;;4935630;28;20271;-83
2021/05/01 00:11:31;;;;;;;38.70;27.17;;;6.50;99.90;;;;;;4932692;28;20341;-83
2021/05/01 00:13:59;;;;;;;40.63;26.50;;;6.40;99.90;;;;;;4939749;28;20468;-83
2021/05/01 00:16:27;;;;;;;35.73;25.10;;;6.40;99.90;;;;;;4954221;28;20496;-82
2021/05/01 00:18:53;;;;;;;38.23;26.80;;;6.40;99.90;;;;;;4940055;28;20468;-83
2021/05/01 00:21:19;;;;;;;38.10;25.67;;;6.40;99.90;;;;;;4935399;28;20924;-83
2021/05/01 00:23:50;;;;;;;41.00;27.13;;;6.30;99.90;;;;;;4942131;28;20453;-83
2021/05/01 00:26:22;;;;;;;39.57;26.70;;;6.30;99.90;;;;;;4940373;28;20245;-84
2021/05/01 00:28:53;;;;;;;39.50;25.67;;;6.20;99.90;;;;;;4942643;28;20892;-84
2021/05/01 00:31:21;;;;;;;37.93;25.63;;;6.20;99.90;;;;;;4939552;28;20578;-84
2021/05/01 00:33:58;;;;;;;39.03;26.73;;;6.30;99.90;;;;;;4940072;28;20454;-84
2021/05/01 00:36:24;;;;;;;39.73;28.07;;;6.30;99.90;;;;;;4940433;28;20476;-84
2021/05/01 00:38:50;;;;;;;36.63;25.80;;;6.40;99.90;;;;;;4941993;28;21023;-84
2021/05/01 00:41:15;;;;;;;45.13;26.60;;;6.30;99.90;;;;;;4941215;28;20208;-84
2021/05/01 00:43:42;;;;;;;37.07;26.00;;;6.30;99.90;;;;;;4935910;28;20200;-83
2021/05/01 00:46:08;;;;;;;35.57;26.50;;;6.30;99.90;;;;;;4935321;28;20209;-83
2021/05/01 00:48:34;;;;;;;37.33;25.87;;;6.30;99.90;;;;;;4940817;28;20483;-82
2021/05/01 00:51:01;;;;;;;39.37;26.03;;;6.20;99.90;;;;;;4939780;28;20442;-83
2021/05/01 00:53:27;;;;;;;39.90;27.50;;;6.20;99.90;;;;;;4939921;28;20203;-83
2021/05/01 00:55:53;;;;;;;43.17;28.27;;;6.20;99.90;;;;;;4937780;28;21010;-81
2021/05/01 00:58:20;;;;;;;45.47;29.20;;;6.20;99.90;;;;;;4935280;28;20474;-83
2021/05/01 01:01:01;;;;;;;43.70;28.47;;;6.20;99.90;;;;;;4938172;28;20457;-83
2021/05/01 01:03:29;;;;;;;39.63;26.40;;;6.30;99.90;;;;;;4940491;28;20466;-83
2021/05/01 01:06:01;;;;;;;45.07;27.77;;;6.40;99.90;;;;;;4938776;28;20824;-83
2021/05/01 01:08:28;;;;;;;42.27;28.03;;;6.40;99.90;;;;;;4936220;28;20829;-83
2021/05/01 01:10:54;;;;;;;39.00;27.33;;;6.50;99.90;;;;;;4934348;28;20435;-83
2021/05/01 01:13:20;;;;;;;44.53;27.33;;;6.50;99.90;;;;;;4941276;28;20978;-83
2021/05/01 01:15:46;;;;;;;41.73;27.70;;;6.50;99.90;;;;;;4938932;28;20461;-83
2021/05/01 01:18:12;;;;;;;40.77;27.90;;;6.50;99.90;;;;;;4940707;28;21024;-83
2021/05/01 01:20:38;;;;;;;38.43;28.27;;;6.50;99.90;;;;;;4951608;28;20505;-83
2021/05/01 01:23:03;;;;;;;41.87;27.40;;;6.50;99.90;;;;;;4937962;28;20188;-83
2021/05/01 01:25:29;;;;;;;41.50;27.40;;;6.60;99.90;;;;;;4937316;28;20958;-83
2021/05/01 01:27:56;;;;;;;41.77;27.90;;;6.60;99.90;;;;;;4955427;28;20705;-83
2021/05/01 01:30:28;;;;;;;40.63;25.87;;;6.70;99.90;;;;;;4954527;28;21197;-83
2021/05/01 01:32:54;;;;;;;41.40;27.37;;;6.70;99.90;;;;;;4940529;28;20464;-83
2021/05/01 01:35:21;;;;;;;39.67;27.27;;;6.70;99.90;;;;;;4938998;28;20463;-83
2021/05/01 01:37:48;;;;;;;38.10;27.43;;;6.70;99.90;;;;;;4939841;28;20296;-83
2021/05/01 01:40:15;;;;;;;36.80;25.87;;;6.70;99.90;;;;;;4938192;28;21180;-83
2021/05/01 01:42:42;;;;;;;39.33;26.97;;;6.80;99.90;;;;;;4939508;28;20964;-82
2021/05/01 01:45:09;;;;;;;45.43;28.57;;;6.70;99.90;;;;;;4936437;28;20443;-83
2021/05/01 01:47:35;;;;;;;48.83;30.77;;;6.70;99.90;;;;;;4938322;28;20488;-82
2021/05/01 01:50:00;;;;;;;40.07;26.97;;;6.70;99.90;;;;;;4939322;28;20951;-82
2021/05/01 01:52:26;;;;;;;41.57;27.70;;;6.80;99.90;;;;;;4940020;28;20195;-82
2021/05/01 01:54:52;;;;;;;41.93;27.73;;;6.90;99.90;;;;;;4937011;28;20297;-82
2021/05/01 01:57:17;;;;;;;37.90;26.13;;;6.90;99.90;;;;;;4940413;28;20199;-82
2021/05/01 01:59:43;;;;;;;41.57;28.43;;;6.80;99.90;;;;;;4937464;28;20188;-82
2021/05/01 02:02:09;;;;;;;38.90;27.13;;;6.90;99.90;;;;;;4938991;28;20191;-81
2021/05/01 02:04:35;;;;;;;35.10;25.80;;;7.00;99.90;;;;;;4931124;28;20204;-84
2021/05/01 02:07:01;;;;;;;39.43;27.00;;;6.90;99.90;;;;;;4940258;28;20549;-84
2021/05/01 02:09:26;;;;;;;40.23;27.00;;;6.80;99.90;;;;;;4936866;28;20490;-84
2021/05/01 02:11:52;;;;;;;43.20;27.73;;;6.80;99.90;;;;;;4937759;28;20227;-84
2021/05/01 02:14:18;;;;;;;39.87;27.80;;;6.80;99.90;;;;;;4939607;28;20221;-84
2021/05/01 02:16:44;;;;;;;42.30;27.70;;;6.80;99.90;;;;;;4937209;28;20444;-84
2021/05/01 02:19:09;;;;;;;43.37;29.47;;;6.80;99.90;;;;;;4937750;28;20189;-84
2021/05/01 02:21:35;;;;;;;38.33;27.67;;;6.90;99.90;;;;;;4939271;28;20553;-84
2021/05/01 02:24:01;;;;;;;35.33;27.47;;;7.00;99.90;;;;;;4937924;28;20684;-84
2021/05/01 02:26:27;;;;;;;36.87;26.30;;;7.00;99.90;;;;;;4938009;28;20288;-84
2021/05/01 02:28:53;;;;;;;37.77;26.10;;;7.00;99.90;;;;;;4934439;28;20196;-85
2021/05/01 02:31:19;;;;;;;37.90;25.27;;;7.00;99.90;;;;;;4927392;28;20200;-84
2021/05/01 02:33:45;;;;;;;37.80;25.60;;;7.00;99.90;;;;;;4939052;28;20517;-84
2021/05/01 02:36:14;;;;;;;37.50;25.80;;;7.00;99.90;;;;;;4932207;28;20448;-84
2021/05/01 02:38:39;;;;;;;38.57;26.10;;;6.90;99.90;;;;;;4921872;28;20491;-84
2021/05/01 02:41:05;;;;;;;40.37;27.50;;;6.90;99.90;;;;;;4933097;28;20533;-84
2021/05/01 02:43:31;;;;;;;39.17;25.23;;;7.00;99.90;;;;;;4935315;28;20205;-84
2021/05/01 02:45:56;;;;;;;41.70;28.17;;;7.00;99.90;;;;;;4934881;28;20199;-84
2021/05/01 02:48:22;;;;;;;44.43;29.40;;;6.90;99.90;;;;;;4938582;28;20276;-84
2021/05/01 02:50:48;;;;;;;43.93;28.40;;;6.90;99.90;;;;;;4935561;28;20210;-84
2021/05/01 02:53:13;;;;;;;45.37;30.53;;;6.90;99.90;;;;;;4937736;28;20192;-84
2021/05/01 02:55:39;;;;;;;46.33;30.10;;;6.80;99.90;;;;;;4933187;28;20199;-84
2021/05/01 02:58:05;;;;;;;47.20;29.13;;;6.80;99.90;;;;;;4938700;28;20726;-84
2021/05/01 03:00:31;;;;;;;51.40;33.57;;;6.70;99.90;;;;;;4935562;28;20565;-84
2021/05/01 03:02:57;;;;;;;48.10;30.33;;;6.70;99.90;;;;;;4935932;28;20216;-83
2021/05/01 03:05:23;;;;;;;48.80;30.80;;;6.70;99.90;;;;;;4938525;28;20274;-83
2021/05/01 03:07:49;;;;;;;49.97;30.80;;;6.70;99.90;;;;;;4938242;28;20545;-83
2021/05/01 03:10:26;;;;;;;51.33;32.07;;;6.70;99.90;;;;;;4935051;28;20447;-84
2021/05/01 03:12:55;;;;;;;53.70;31.40;;;6.70;99.90;;;;;;4939854;28;20663;-83
2021/05/01 03:15:22;;;;;;;48.30;30.10;;;6.70;99.90;;;;;;4954379;28;20457;-83
2021/05/01 03:17:48;;;;;;;52.83;31.70;;;6.70;99.90;;;;;;4933250;28;20986;-84
2021/05/01 03:20:15;;;;;;;49.10;29.63;;;6.60;99.90;;;;;;4936350;28;20464;-84
2021/05/01 03:22:41;;;;;;;45.70;29.17;;;6.60;99.90;;;;;;4935135;28;20439;-84
2021/05/01 03:25:12;;;;;;;49.57;30.77;;;6.70;99.90;;;;;;4936429;28;20525;-85
2021/05/01 03:27:44;;;;;;;52.73;30.67;;;6.60;99.90;;;;;;4951652;28;20499;-85
2021/05/01 03:30:13;;;;;;;44.77;28.87;;;6.60;99.90;;;;;;4937604;28;20447;-85
2021/05/01 03:32:40;;;;;;;43.03;29.10;;;6.70;99.90;;;;;;4937468;28;20459;-85
2021/05/01 03:35:18;;;;;;;44.87;29.33;;;6.80;99.90;;;;;;4934206;28;20443;-83
2021/05/01 03:37:44;;;;;;;46.27;29.80;;;6.70;99.90;;;;;;4938464;28;20973;-83
2021/05/01 03:40:11;;;;;;;44.90;28.50;;;6.70;99.90;;;;;;4936371;28;21719;-82
2021/05/01 03:42:37;;;;;;;47.00;28.90;;;6.70;99.90;;;;;;4936755;28;20190;-82
2021/05/01 03:45:04;;;;;;;46.67;29.77;;;6.70;99.90;;;;;;4933384;28;20448;-83
2021/05/01 03:47:30;;;;;;;43.40;27.60;;;6.70;99.90;;;;;;4934506;28;20919;-83
2021/05/01 03:49:59;;;;;;;39.03;27.17;;;6.70;99.90;;;;;;4940247;28;20623;-82
2021/05/01 03:52:24;;;;;;;37.90;26.30;;;6.80;99.90;;;;;;4943588;28;20198;-82
2021/05/01 03:54:50;;;;;;;39.87;25.97;;;6.90;99.90;;;;;;4942118;28;20844;-82
2021/05/01 03:57:16;;;;;;;36.90;25.23;;;6.90;99.90;;;;;;4941833;28;20470;-82
2021/05/01 03:59:41;;;;;;;41.33;27.47;;;7.00;99.90;;;;;;4953574;28;20330;-83
2021/05/01 04:02:07;;;;;;;43.00;27.60;;;6.80;99.90;;;;;;4939264;28;20627;-83
2021/05/01 04:04:33;;;;;;;44.87;30.00;;;6.70;99.90;;;;;;4941390;28;20694;-83
2021/05/01 04:06:58;;;;;;;44.30;28.37;;;6.70;99.90;;;;;;4940003;28;20219;-82
2021/05/01 04:09:24;;;;;;;48.60;29.30;;;6.70;99.90;;;;;;4955376;28;20188;-82
2021/05/01 04:11:50;;;;;;;44.60;26.93;;;6.70;99.90;;;;;;4940755;28;20630;-82
2021/05/01 04:14:16;;;;;;;41.13;28.27;;;6.70;99.90;;;;;;4936884;28;21037;-82
2021/05/01 04:16:42;;;;;;;39.20;26.10;;;6.80;99.90;;;;;;4940164;28;20194;-82
2021/05/01 04:19:07;;;;;;;34.00;24.00;;;6.70;99.90;;;;;;4939420;28;20444;-82
2021/05/01 04:21:35;;;;;;;38.63;27.20;;;6.70;99.90;;;;;;4941144;28;20266;-82
2021/05/01 04:24:01;;;;;;;38.43;25.60;;;6.70;99.90;;;;;;4936385;28;20191;-82
2021/05/01 04:26:26;;;;;;;38.70;26.50;;;6.80;99.90;;;;;;4937863;28;20798;-83
2021/05/01 04:28:52;;;;;;;37.33;25.67;;;6.90;99.90;;;;;;4940224;28;20192;-83
2021/05/01 04:31:19;;;;;;;39.07;26.03;;;6.90;99.90;;;;;;4942489;28;20185;-82
2021/05/01 04:33:45;;;;;;;38.17;24.80;;;6.80;99.90;;;;;;4937276;28;20451;-83
2021/05/01 04:36:10;;;;;;;37.43;24.93;;;6.80;99.90;;;;;;4938670;28;20452;-83
2021/05/01 04:38:36;;;;;;;42.10;28.27;;;6.80;99.90;;;;;;4939847;28;20196;-82
2021/05/01 04:41:02;;;;;;;35.33;26.00;;;6.90;99.90;;;;;;4938989;28;20201;-82
2021/05/01 04:43:31;;;;;;;33.47;24.07;;;7.00;99.90;;;;;;4938972;28;20186;-82
2021/05/01 04:45:58;;;;;;;34.57;26.60;;;7.00;99.90;;;;;;4936703;28;20529;-83
2021/05/01 04:48:23;;;;;;;36.03;24.73;;;7.10;99.90;;;;;;4935220;28;20547;-82
2021/05/01 04:50:52;;;;;;;35.53;26.10;;;7.20;99.90;;;;;;4939327;28;20455;-82
2021/05/01 04:53:18;;;;;;;34.80;26.17;;;7.20;99.90;;;;;;4938791;28;20311;-83
2021/05/01 04:55:44;;;;;;;33.57;25.50;;;7.20;99.90;;;;;;4940983;28;20456;-83
2021/05/01 04:58:10;;;;;;;39.93;28.70;;;7.20;99.90;;;;;;4932957;28;20628;-82
2021/05/01 05:00:36;;;;;;;36.63;26.60;;;7.20;99.90;;;;;;4937056;28;20453;-83
2021/05/01 05:03:04;;;;;;;36.77;26.27;;;7.20;99.90;;;;;;4936677;28;20259;-83
2021/05/01 05:05:30;;;;;;;40.83;27.67;;;7.20;99.90;;;;;;4936344;28;20732;-83
2021/05/01 05:07:56;;;;;;;36.07;27.27;;;7.20;99.90;;;;;;4934616;28;20470;-82
2021/05/01 05:10:22;;;;;;;38.47;25.93;;;7.30;99.90;;;;;;4937177;28;20704;-83
2021/05/01 05:12:51;;;;;;;36.20;27.20;;;7.30;99.90;;;;;;4938888;28;21392;-83
2021/05/01 05:15:25;;;;;;;34.87;25.50;;;7.40;99.90;;;;;;4939836;28;20449;-84
2021/05/01 05:17:51;;;;;;;39.53;26.27;;;7.40;99.90;;;;;;4954783;28;20467;-84
2021/05/01 05:20:19;;;;;;;33.67;24.70;;;7.30;99.90;;;;;;4936780;28;20465;-84
2021/05/01 05:22:47;;;;;;;33.70;23.70;;;7.30;99.90;;;;;;4940163;28;20204;-84
2021/05/01 05:25:12;;;;;;;37.00;24.60;;;7.30;99.90;;;;;;4937053;28;20452;-85
2021/05/01 05:27:38;;;;;;;34.10;25.43;;;7.40;99.90;;;;;;4920982;28;20330;-84
2021/05/01 05:30:04;;;;;;;34.27;25.90;;;7.40;99.90;;;;;;4937099;28;20238;-83
2021/05/01 05:32:30;;;;;;;32.10;24.20;;;7.30;99.90;;;;;;4940669;28;20204;-82
2021/05/01 05:34:56;;;;;;;34.43;24.83;;;7.40;99.90;;;;;;4937192;28;20439;-82
2021/05/01 05:37:22;;;;;;;37.30;24.90;;;7.40;99.90;;;;;;4936142;28;20207;-83
2021/05/01 05:39:49;;;;;;;33.77;25.20;;;7.50;99.90;;;;;;4936965;28;20199;-83
2021/05/01 05:42:16;;;;;;;38.67;26.97;;;7.70;99.90;;;;;;4940285;28;20648;-84
2021/05/01 05:44:45;;;;;;;34.60;26.00;;;7.70;99.90;;;;;;4936851;28;20446;-83
2021/05/01 05:47:12;;;;;;;34.93;25.27;;;7.90;99.90;;;;;;4937133;28;20494;-83
2021/05/01 05:49:38;;;;;;;32.67;24.90;;;8.10;99.90;;;;;;4937276;28;20560;-84
2021/05/01 05:52:05;;;;;;;35.80;25.57;;;8.10;99.90;;;;;;4937515;28;20457;-83
2021/05/01 05:54:31;;;;;;;39.23;28.13;;;8.20;99.90;;;;;;4936439;28;21049;-83
2021/05/01 05:56:57;;;;;;;38.50;26.87;;;8.20;99.90;;;;;;4938655;28;20516;-83
2021/05/01 05:59:23;;;;;;;37.93;26.17;;;8.20;99.90;;;;;;4931463;28;20292;-83
2021/05/01 06:01:51;;;;;;;33.70;24.30;;;8.20;99.90;;;;;;4933930;28;21155;-84
2021/05/01 06:04:51;;;;;;;33.67;23.50;;;8.30;99.90;;;;;;4935870;28;20739;-87
2021/05/01 06:07:53;;;;;;;32.97;25.33;;;8.40;99.90;;;;;;4936230;28;20701;-84
2021/05/01 06:10:22;;;;;;;37.33;27.33;;;8.60;99.90;;;;;;4933784;28;20528;-84
2021/05/01 06:12:49;;;;;;;35.77;25.53;;;8.60;99.90;;;;;;4931164;28;20561;-85
2021/05/01 06:15:16;;;;;;;34.17;25.10;;;8.60;99.90;;;;;;4935227;28;20468;-84
2021/05/01 06:17:44;;;;;;;33.67;25.50;;;8.50;99.90;;;;;;4931740;28;20451;-85
2021/05/01 06:20:12;;;;;;;36.23;24.93;;;8.60;99.90;;;;;;4950108;28;21837;-84
2021/05/01 06:22:39;;;;;;;32.10;25.13;;;8.60;99.90;;;;;;4936094;28;20491;-83
2021/05/01 06:25:07;;;;;;;33.87;25.70;;;8.60;99.90;;;;;;4935370;28;20452;-83
2021/05/01 06:27:33;;;;;;;30.93;23.40;;;8.50;99.90;;;;;;4937854;28;21188;-83
2021/05/01 06:30:00;;;;;;;31.63;25.03;;;8.50;99.90;;;;;;4936679;28;20452;-83
2021/05/01 06:32:26;;;;;;;30.10;22.70;;;8.50;99.90;;;;;;4937248;28;20520;-83
2021/05/01 06:34:54;;;;;;;29.80;21.40;;;8.50;99.90;;;;;;4932864;28;20951;-83
2021/05/01 06:37:21;;;;;;;33.87;23.60;;;8.60;99.90;;;;;;4935490;28;20194;-83
2021/05/01 06:39:49;;;;;;;29.03;22.40;;;8.70;99.90;;;;;;4936202;28;20459;-84
2021/05/01 06:42:19;;;;;;;24.10;18.30;;;8.80;99.90;;;;;;4933957;28;20459;-84
2021/05/01 06:45:04;;;;;;;24.67;19.30;;;8.70;99.90;;;;;;4930612;28;20438;-84
2021/05/01 06:47:31;;;;;;;25.97;19.50;;;8.60;99.90;;;;;;4936606;28;20514;-85
2021/05/01 06:50:08;;;;;;;26.93;20.23;;;8.70;99.90;;;;;;4934363;28;20663;-83
2021/05/01 06:52:41;;;;;;;21.30;17.47;;;8.80;99.90;;;;;;4938125;28;21036;-84
2021/05/01 06:55:08;;;;;;;18.27;14.27;;;8.80;99.90;;;;;;4917559;28;20438;-84
2021/05/01 06:57:38;;;;;;;22.67;17.53;;;8.70;99.90;;;;;;4936539;28;20991;-84
2021/05/01 07:00:08;;;;;;;26.07;18.80;;;8.60;99.90;;;;;;4936895;28;20478;-85
2021/05/01 07:02:40;;;;;;;21.40;16.90;;;8.60;99.90;;;;;;4917636;28;20476;-85
2021/05/01 07:05:17;;;;;;;22.60;17.50;;;8.70;99.90;;;;;;4934285;28;20454;-85
2021/05/01 07:07:45;;;;;;;22.33;17.03;;;8.80;99.90;;;;;;4933899;28;20887;-84
2021/05/01 07:10:13;;;;;;;21.87;17.30;;;8.80;99.90;;;;;;4949713;28;20450;-84
2021/05/01 07:12:41;;;;;;;21.30;15.90;;;8.80;99.90;;;;;;4935604;28;20454;-84
2021/05/01 07:15:16;;;;;;;22.10;17.07;;;8.80;99.90;;;;;;4931622;28;20532;-84
2021/05/01 07:17:43;;;;;;;22.40;17.03;;;8.90;99.90;;;;;;4936536;28;20489;-86
2021/05/01 07:20:12;;;;;;;22.47;17.37;;;9.10;99.90;;;;;;4964740;28;20545;-85
2021/05/01 07:22:38;;;;;;;23.07;17.40;;;9.20;99.90;;;;;;4937584;28;20466;-84
2021/05/01 07:25:07;;;;;;;22.80;18.30;;;9.00;99.90;;;;;;4933760;28;20450;-85
2021/05/01 07:28:03;;;;;;;23.87;18.40;;;9.00;99.90;;;;;;4934787;28;20489;-85
2021/05/01 07:30:41;;;;;;;23.80;18.23;;;9.20;99.90;;;;;;4929527;28;20449;-84
2021/05/01 07:33:30;;;;;;;23.80;18.30;;;9.30;99.90;;;;;;4935025;28;20897;-85
2021/05/01 07:36:01;;;;;;;20.93;17.10;;;9.40;99.90;;;;;;4935286;28;20462;-85
2021/05/01 07:38:27;;;;;;;21.47;16.43;;;9.50;99.90;;;;;;4937218;28;20921;-86
2021/05/01 07:40:58;;;;;;;19.60;16.20;;;9.50;99.90;;;;;;4934556;28;20996;-86
2021/05/01 07:43:26;;;;;;;23.10;16.73;;;9.40;99.90;;;;;;4952425;28;20721;-85
2021/05/01 07:45:57;;;;;;;21.53;16.13;;;9.40;99.90;;;;;;4932737;28;20930;-85
2021/05/01 07:48:26;;;;;;;21.53;16.60;;;9.40;99.90;;;;;;4936624;28;20577;-84
2021/05/01 07:51:02;;;;;;;22.10;16.77;;;9.30;99.90;;;;;;4916470;28;20725;-85
2021/05/01 07:53:33;;;;;;;24.17;17.10;;;9.30;99.90;;;;;;4935913;28;20455;-85
2021/05/01 07:56:18;;;;;;;21.77;17.40;;;9.40;99.90;;;;;;4937163;28;20505;-85
2021/05/01 07:58:44;;;;;;;20.03;16.70;;;9.40;99.90;;;;;;4932604;28;20462;-86
2021/05/01 08:01:09;;;;;;;21.00;17.00;;;9.50;99.90;;;;;;4934036;28;20322;-85
2021/05/01 08:03:35;;;;;;;21.40;15.60;;;9.60;99.90;;;;;;4933741;28;20588;-91
2021/05/01 08:06:02;;;;;;;23.03;16.90;;;10.00;99.90;;;;;;4933132;28;21922;-91
2021/05/01 08:08:27;;;;;;;18.23;15.23;;;10.20;99.90;;;;;;4934600;28;21099;-91
2021/05/01 08:10:53;;;;;;;18.23;15.30;;;10.60;99.90;;;;;;4933210;28;20442;-90
2021/05/01 08:13:20;;;;;;;20.20;16.50;;;10.70;99.90;;;;;;4934919;28;20200;-91
2021/05/01 08:15:46;;;;;;;18.70;15.30;;;10.60;99.90;;;;;;4931962;28;20233;-91
2021/05/01 08:18:11;;;;;;;19.97;15.90;;;10.60;99.90;;;;;;4933914;28;20859;-88
2021/05/01 08:20:37;;;;;;;20.57;16.93;;;10.50;99.90;;;;;;4936401;28;20751;-89
2021/05/01 08:23:04;;;;;;;21.93;17.20;;;10.30;99.90;;;;;;4935986;28;20206;-90
2021/05/01 08:25:29;;;;;;;19.50;16.30;;;9.90;99.90;;;;;;4921135;28;20464;-92
2021/05/01 08:27:56;;;;;;;21.77;18.57;;;9.50;99.90;;;;;;4934313;28;21226;-91
2021/05/01 08:30:22;;;;;;;27.07;18.17;;;9.60;99.90;;;;;;4934972;28;20549;-90
2021/05/01 08:32:48;;;;;;;22.17;18.10;;;9.50;99.90;;;;;;4934925;28;20562;-90
2021/05/01 08:35:15;;;;;;;22.93;16.73;;;9.50;99.90;;;;;;4934009;28;21134;-89
2021/05/01 08:37:43;;;;;;;20.20;16.73;;;9.70;99.90;;;;;;4942040;28;20455;-91
2021/05/01 08:40:12;;;;;;;19.53;16.60;;;10.00;99.90;;;;;;4937956;28;20462;-88
2021/05/01 08:42:43;;;;;;;19.50;15.87;;;10.10;99.90;;;;;;4939311;28;20440;-89
2021/05/01 08:45:11;;;;;;;18.80;15.70;;;10.10;99.90;;;;;;4936082;28;20451;-89
2021/05/01 08:47:45;;;;;;;21.07;16.40;;;10.20;99.90;;;;;;4934123;28;20497;-89
2021/05/01 08:50:26;;;;;;;18.90;15.43;;;10.30;99.90;;;;;;4940308;28;20792;-90
2021/05/01 08:53:03;;;;;;;21.50;15.00;;;10.50;99.90;;;;;;4936037;28;20502;-90
2021/05/01 08:55:34;;;;;;;18.37;14.83;;;10.60;99.90;;;;;;4919071;29;20465;-93
2021/05/01 08:58:03;;;;;;;18.37;14.80;;;10.50;99.90;;;;;;4937151;28;20451;-92
2021/05/01 09:00:30;;;;;;;18.97;16.00;;;10.40;99.90;;;;;;4944951;28;20437;-92
2021/05/01 09:02:56;;;;;;;17.73;14.83;;;10.60;99.90;;;;;;4941513;28;20537;-95
2021/05/01 09:05:25;;;;;;;20.27;16.57;;;11.10;99.90;;;;;;4941000;28;21095;-92
2021/05/01 09:07:51;;;;;;;20.40;15.87;;;11.30;99.90;;;;;;4943398;29;20493;-93
2021/05/01 09:10:17;;;;;;;20.97;15.43;;;11.30;99.90;;;;;;4946230;29;20492;-93
2021/05/01 09:12:46;;;;;;;17.83;15.93;;;11.40;99.90;;;;;;4946154;28;20803;-95
2021/05/01 09:15:24;;;;;;;18.07;15.30;;;11.30;99.90;;;;;;4947435;28;20271;-92
2021/05/01 09:18:01;;;;;;;18.57;15.27;;;11.30;99.90;;;;;;4971822;28;20450;-93
2021/05/01 09:20:27;;;;;;;17.73;15.60;;;11.20;99.90;;;;;;4945482;29;20470;-93
2021/05/01 09:23:02;;;;;;;20.93;15.60;;;11.30;99.90;;;;;;4949822;28;20798;-94
2021/05/01 09:25:33;;;;;;;18.00;14.10;;;11.10;99.90;;;;;;4944418;29;20448;-91
2021/05/01 09:28:13;;;;;;;18.40;14.83;;;10.80;99.90;;;;;;4955453;28;20504;-90
2021/05/01 09:30:42;;;;;;;16.80;14.87;;;10.40;99.90;;;;;;4940188;28;20445;-90
2021/05/01 09:33:24;;;;;;;16.73;14.63;;;10.30;99.90;;;;;;4943590;28;20833;-90
2021/05/01 09:36:02;;;;;;;19.80;17.17;;;10.50;99.90;;;;;;4942372;28;20459;-88
2021/05/01 09:38:35;;;;;;;23.57;19.97;;;10.40;99.90;;;;;;4942780;28;20450;-87
2021/05/01 09:41:14;;;;;;;26.60;20.30;;;10.00;99.90;;;;;;4943581;29;20844;-89
2021/05/01 09:44:02;;;;;;;27.60;20.60;;;10.00;99.90;;;;;;4946668;28;20455;-89
2021/05/01 09:46:29;;;;;;;23.67;19.37;;;10.40;99.90;;;;;;4937845;28;20942;-90
2021/05/01 09:49:26;;;;;;;27.80;23.60;;;10.90;99.90;;;;;;4945041;28;20466;-91
2021/05/01 09:51:59;;;;;;;19.23;15.97;;;10.90;99.90;;;;;;4940273;28;20455;-89
2021/05/01 09:54:42;;;;;;;18.93;16.43;;;11.40;99.90;;;;;;4941827;29;20462;-90
2021/05/01 09:57:10;;;;;;;24.07;20.60;;;11.60;99.90;;;;;;4939618;29;20449;-89
2021/05/01 09:59:56;;;;;;;24.80;20.53;;;11.30;99.90;;;;;;4940374;29;20541;-90
2021/05/01 10:02:32;;;;;;;21.00;18.47;;;11.40;99.90;;;;;;4937864;29;20456;-91
2021/05/01 10:05:24;;;;;;;22.03;19.63;;;11.20;99.90;;;;;;4941054;29;21229;-92
2021/05/01 10:07:53;;;;;;;26.77;21.90;;;11.30;99.90;;;;;;4942983;28;20576;-92
2021/05/01 10:10:20;;;;;;;26.23;21.67;;;11.20;99.90;;;;;;4940039;28;20446;-93
2021/05/01 10:12:51;;;;;;;25.60;22.07;;;10.70;99.90;;;;;;4942113;28;20525;-91
2021/05/01 10:15:23;;;;;;;28.90;22.43;;;10.60;99.90;;;;;;4943670;28;20552;-90
2021/05/01 10:17:51;;;;;;;28.00;22.13;;;10.60;99.90;;;;;;4941353;28;20452;-90
2021/05/01 10:20:18;;;;;;;26.53;21.67;;;10.50;99.90;;;;;;4940812;28;20796;-91
2021/05/01 10:23:03;;;;;;;25.33;20.27;;;10.40;99.90;;;;;;4936297;28;20547;-90
2021/05/01 10:25:31;;;;;;;26.30;21.10;;;10.10;99.90;;;;;;4942850;28;20450;-91
2021/05/01 10:28:11;;;;;;;27.40;21.07;;;10.10;99.90;;;;;;4937567;28;20490;-90
2021/05/01 10:30:45;;;;;;;27.77;22.47;;;10.30;99.90;;;;;;4938057;28;20451;-90
2021/05/01 10:33:34;;;;;;;26.20;20.93;;;10.50;99.90;;;;;;4935841;28;20453;-90
2021/05/01 10:36:40;;;;;;;24.63;19.20;;;10.70;99.90;;;;;;4941490;28;20749;-91
2021/05/01 10:39:09;;;;;;;24.13;19.17;;;11.00;99.90;;;;;;4943582;28;20955;-93
2021/05/01 10:42:01;;;;;;;26.00;20.30;;;11.10;99.90;;;;;;4940746;28;20454;-90
2021/05/01 10:44:29;;;;;;;24.60;19.77;;;11.10;99.90;;;;;;4941592;28;20475;-90
2021/05/01 10:47:10;;;;;;;23.90;19.97;;;11.10;99.90;;;;;;4941899;28;20718;-90
2021/05/01 10:49:37;;;;;;;23.90;19.73;;;11.20;99.90;;;;;;4958414;28;20462;-91
2021/05/01 10:52:18;;;;;;;23.33;20.37;;;11.00;99.90;;;;;;4940246;28;20446;-90
2021/05/01 10:55:10;;;;;;;22.67;18.80;;;11.10;99.90;;;;;;4943679;29;20455;-92
2021/05/01 10:57:39;;;;;;;24.33;19.47;;;11.20;99.90;;;;;;4957044;28;20439;-91
2021/05/01 11:00:08;;;;;;;22.07;18.13;;;11.30;99.90;;;;;;4926532;29;20498;-94
2021/05/01 11:02:39;;;;;;;22.73;17.90;;;11.10;99.90;;;;;;4945846;29;21704;-92
2021/05/01 11:05:09;;;;;;;22.80;18.03;;;10.90;99.90;;;;;;4945697;28;20454;-96
2021/05/01 11:07:50;;;;;;;21.80;18.67;;;11.10;99.90;;;;;;4940854;28;20514;-94
2021/05/01 11:10:17;;;;;;;21.03;17.80;;;11.30;99.90;;;;;;4929865;29;21044;-94
2021/05/01 11:12:55;;;;;;;25.47;19.67;;;11.30;99.90;;;;;;4941542;28;20501;-94
2021/05/01 11:15:25;;;;;;;22.63;19.17;;;11.30;99.90;;;;;;4949288;29;20478;-95
2021/05/01 11:18:06;;;;;;;20.90;18.53;;;11.50;99.90;;;;;;4950763;28;20505;-95
2021/05/01 11:20:53;;;;;;;22.20;19.40;;;11.70;99.90;;;;;;4939631;28;20438;-94
2021/05/01 11:23:32;;;;;;;20.67;18.17;;;11.60;99.90;;;;;;4942460;29;20460;-95
2021/05/01 11:26:02;;;;;;;22.77;19.50;;;11.20;99.90;;;;;;4947231;28;20474;-95
2021/05/01 11:28:36;;;;;;;25.97;20.30;;;10.90;99.90;;;;;;4940210;29;20591;-93
2021/05/01 11:31:12;;;;;;;26.10;21.87;;;10.90;99.90;;;;;;4944936;28;20443;-95
2021/05/01 11:33:39;;;;;;;22.13;18.93;;;10.90;99.90;;;;;;4940900;29;20457;-94
2021/05/01 11:36:08;;;;;;;25.43;21.13;;;10.90;99.90;;;;;;4940089;28;20458;-94
2021/05/01 11:38:38;;;;;;;27.10;21.60;;;10.90;99.90;;;;;;4944041;28;20429;-92
2021/05/01 11:41:12;;;;;;;27.47;22.37;;;10.70;99.90;;;;;;4935329;28;21504;-89
2021/05/01 11:43:40;;;;;;;29.67;26.23;;;10.90;99.90;;;;;;4941799;29;20805;-88
2021/05/01 11:46:33;;;;;;;25.03;20.90;;;10.90;99.90;;;;;;4937998;28;20474;-87
2021/05/01 11:49:08;;;;;;;25.90;21.27;;;11.10;99.90;;;;;;4940991;29;20469;-88
2021/05/01 11:51:45;;;;;;;25.03;21.10;;;11.30;99.90;;;;;;4958064;28;20441;-90
2021/05/01 11:54:46;;;;;;;26.67;22.67;;;11.30;99.90;;;;;;4939806;29;20881;-84
2021/05/01 11:57:35;;;;;;;26.63;21.20;;;11.20;99.90;;;;;;4941668;29;20847;-89
2021/05/01 12:00:01;;;;;;;25.47;21.63;;;11.50;99.90;;;;;;4941157;29;20447;-86
2021/05/01 12:02:44;;;;;;;27.17;22.70;;;11.60;99.90;;;;;;4936736;28;20454;-89
2021/05/01 12:05:13;;;;;;;27.30;22.73;;;11.60;99.90;;;;;;4939616;28;20919;-89
2021/05/01 12:07:44;;;;;;;29.03;23.17;;;11.60;99.90;;;;;;4938500;28;20486;-89
2021/05/01 12:10:13;;;;;;;25.80;23.03;;;11.80;99.90;;;;;;4937827;28;20459;-89
2021/05/01 12:12:50;;;;;;;27.57;23.10;;;12.00;99.90;;;;;;4945475;28;21075;-89
2021/05/01 12:15:16;;;;;;;26.73;22.30;;;12.10;99.90;;;;;;4945329;28;20438;-89
2021/05/01 12:17:52;;;;;;;27.40;23.50;;;12.30;99.90;;;;;;4945277;28;20470;-90
2021/05/01 12:20:31;;;;;;;26.37;21.00;;;12.20;99.90;;;;;;4945453;28;20450;-91
2021/05/01 12:23:10;;;;;;;27.80;22.27;;;12.40;99.90;;;;;;4968293;28;20541;-90
2021/05/01 12:25:40;;;;;;;27.27;23.83;;;12.60;99.90;;;;;;4944297;28;20494;-90
2021/05/01 12:28:10;;;;;;;26.13;23.07;;;12.60;99.90;;;;;;4944444;28;20723;-90
2021/05/01 12:30:39;;;;;;;26.63;22.83;;;12.40;99.90;;;;;;4945208;29;20812;-89
2021/05/01 12:33:24;;;;;;;27.50;23.97;;;12.40;99.90;;;;;;4942960;28;20976;-89
2021/05/01 12:35:59;;;;;;;27.37;23.40;;;12.30;99.90;;;;;;4945278;28;20711;-90
2021/05/01 12:38:26;;;;;;;29.07;22.90;;;12.60;99.90;;;;;;4947154;29;20532;-90
2021/05/01 12:41:12;;;;;;;26.03;22.30;;;12.70;99.90;;;;;;4945497;28;21218;-89
2021/05/01 12:43:45;;;;;;;29.93;23.23;;;12.80;99.90;;;;;;4940391;29;20533;-90
2021/05/01 12:46:13;;;;;;;25.60;22.90;;;12.70;99.90;;;;;;4943096;29;20957;-89
2021/05/01 12:48:59;;;;;;;31.43;26.47;;;12.80;99.90;;;;;;4943218;29;20473;-89